createdAt,value
2019-03-30T00:01:50.343Z,90.30
2019-03-30T00:04:18.748Z,90.40
2019-03-30T00:06:47.194Z,90.30
2019-03-30T00:09:15.546Z,90.30
2019-03-30T00:11:43.955Z,90.20
2019-03-30T00:14:12.365Z,90.00
2019-03-30T00:16:40.778Z,90.00
2019-03-30T00:19:09.161Z,90.00
2019-03-30T00:21:37.655Z,90.20
2019-03-30T00:24:06.024Z,90.40
2019-03-30T00:26:34.441Z,90.70
2019-03-30T00:29:02.841Z,90.80
2019-03-30T00:31:31.266Z,90.80
2019-03-30T00:33:59.661Z,91.30
2019-03-30T00:36:28.049Z,91.20
2019-03-30T00:38:56.436Z,91.20
2019-03-30T00:41:24.809Z,91.20
2019-03-30T00:43:53.169Z,91.30
2019-03-30T00:46:21.601Z,91.50
2019-03-30T00:48:49.982Z,91.60
2019-03-30T00:51:18.364Z,92.10
2019-03-30T00:53:47.231Z,91.50
2019-03-30T00:56:15.726Z,91.50
2019-03-30T00:58:44.119Z,91.40
2019-03-30T01:01:12.765Z,91.10
2019-03-30T01:03:41.313Z,91.00
2019-03-30T01:06:09.901Z,90.80
2019-03-30T01:08:38.265Z,90.80
2019-03-30T01:11:06.650Z,90.80
2019-03-30T01:13:35.134Z,90.90
2019-03-30T01:16:03.542Z,91.00
2019-03-30T01:18:32.103Z,91.20
2019-03-30T01:21:00.514Z,91.40
2019-03-30T01:23:28.931Z,91.30
2019-03-30T01:25:57.331Z,91.30
2019-03-30T01:28:25.770Z,91.40
2019-03-30T01:30:54.298Z,91.40
2019-03-30T01:33:22.698Z,91.90
2019-03-30T01:35:51.083Z,92.00
2019-03-30T01:38:19.503Z,92.00
2019-03-30T01:40:47.915Z,92.00
2019-03-30T01:43:16.366Z,92.10
2019-03-30T01:45:44.777Z,92.00
2019-03-30T01:48:13.259Z,92.40
2019-03-30T01:50:41.699Z,92.00
2019-03-30T01:53:10.128Z,91.90
2019-03-30T01:55:38.520Z,92.10
2019-03-30T01:58:06.940Z,92.10
2019-03-30T02:00:35.345Z,92.20
2019-03-30T02:03:03.776Z,92.40
2019-03-30T02:05:32.151Z,92.50
2019-03-30T02:08:00.539Z,92.90
2019-03-30T02:10:42.569Z,92.40
2019-03-30T02:13:10.972Z,92.50
2019-03-30T02:15:39.353Z,92.60
2019-03-30T02:18:08.025Z,92.40
2019-03-30T02:20:38.742Z,92.50
2019-03-30T02:23:07.346Z,92.50
2019-03-30T02:25:35.741Z,92.70
2019-03-30T02:28:06.912Z,92.70
2019-03-30T02:30:34.536Z,92.80
2019-03-30T02:33:02.963Z,93.00
2019-03-30T02:35:31.337Z,93.20
2019-03-30T02:37:59.754Z,93.20
2019-03-30T02:40:28.252Z,93.20
2019-03-30T02:42:56.626Z,93.30
2019-03-30T02:45:25.049Z,93.20
2019-03-30T02:47:53.509Z,93.10
2019-03-30T02:50:21.885Z,93.20
2019-03-30T02:52:50.397Z,93.20
2019-03-30T02:55:18.932Z,93.10
2019-03-30T02:57:47.349Z,93.10
2019-03-30T03:00:16.512Z,93.30
2019-03-30T03:02:44.992Z,93.40
2019-03-30T03:05:13.401Z,93.40
2019-03-30T03:07:41.822Z,93.50
2019-03-30T03:10:10.311Z,93.50
2019-03-30T03:12:38.816Z,93.50
2019-03-30T03:15:07.310Z,93.60
2019-03-30T03:17:35.691Z,93.60
2019-03-30T03:20:05.575Z,93.60
2019-03-30T03:22:33.986Z,93.70
2019-03-30T03:25:02.426Z,93.70
2019-03-30T03:27:30.927Z,93.70
2019-03-30T03:29:59.328Z,93.80
2019-03-30T03:32:27.772Z,93.80
2019-03-30T03:34:56.169Z,93.80
2019-03-30T03:37:43.588Z,93.90
2019-03-30T03:39:54.645Z,93.90
2019-03-30T03:42:23.122Z,94.10
2019-03-30T03:44:51.506Z,94.00
2019-03-30T03:47:19.890Z,94.10
2019-03-30T03:49:48.261Z,94.00
2019-03-30T03:52:16.599Z,94.10
2019-03-30T03:54:45.015Z,94.20
2019-03-30T03:57:13.724Z,94.20
2019-03-30T03:59:42.071Z,94.20
2019-03-30T04:02:11.190Z,94.30
2019-03-30T04:04:39.633Z,94.30
2019-03-30T04:07:08.034Z,94.20
2019-03-30T04:09:36.413Z,94.10
2019-03-30T04:12:06.870Z,94.00
2019-03-30T04:14:35.550Z,94.00
2019-03-30T04:17:03.979Z,94.00
2019-03-30T04:19:32.521Z,94.00
2019-03-30T04:22:00.992Z,94.20
2019-03-30T04:24:29.403Z,94.10
2019-03-30T04:26:57.806Z,94.00
2019-03-30T04:29:26.189Z,93.90
2019-03-30T04:31:54.744Z,93.90
2019-03-30T04:34:23.079Z,93.90
2019-03-30T04:36:51.417Z,93.80
2019-03-30T04:39:19.834Z,93.60
2019-03-30T04:41:48.188Z,93.90
2019-03-30T04:44:16.578Z,93.40
2019-03-30T04:46:44.978Z,93.30
2019-03-30T04:49:13.417Z,93.20
2019-03-30T04:51:41.800Z,93.10
2019-03-30T04:54:10.205Z,93.00
2019-03-30T04:56:38.618Z,92.90
2019-03-30T04:59:07.048Z,92.30
2019-03-30T05:01:35.590Z,91.80
2019-03-30T05:04:03.938Z,91.10
2019-03-30T05:06:32.350Z,90.20
2019-03-30T05:09:00.871Z,87.40
2019-03-30T05:11:29.227Z,84.90
2019-03-30T05:13:57.569Z,83.20
2019-03-30T05:16:27.807Z,82.50
2019-03-30T05:18:56.194Z,80.30
2019-03-30T05:21:24.592Z,79.60
2019-03-30T05:23:53.004Z,78.40
2019-03-30T05:26:21.418Z,75.30
2019-03-30T05:28:49.806Z,70.70
2019-03-30T05:31:18.197Z,66.10
2019-03-30T05:33:46.626Z,65.90
2019-03-30T05:36:15.036Z,66.60
2019-03-30T05:38:43.481Z,66.80
2019-03-30T05:41:11.885Z,67.20
2019-03-30T05:43:40.261Z,69.90
2019-03-30T05:46:08.673Z,70.90
2019-03-30T05:48:37.088Z,70.60
2019-03-30T05:51:05.502Z,70.40
2019-03-30T05:53:33.970Z,69.60
2019-03-30T05:56:02.354Z,70.50
2019-03-30T05:58:30.794Z,71.80
2019-03-30T06:00:59.190Z,73.50
2019-03-30T06:03:27.687Z,72.80
2019-03-30T06:05:56.087Z,71.90
2019-03-30T06:08:24.475Z,71.80
2019-03-30T06:10:52.900Z,72.20
2019-03-30T06:13:21.271Z,70.70
2019-03-30T06:15:49.679Z,67.10
2019-03-30T06:18:18.089Z,64.20
2019-03-30T06:20:46.503Z,61.30
2019-03-30T06:23:14.914Z,62.80
2019-03-30T06:25:43.257Z,65.00
2019-03-30T06:28:11.779Z,63.80
2019-03-30T06:30:40.188Z,63.10
2019-03-30T06:33:08.585Z,60.10
2019-03-30T06:35:37.011Z,57.70
2019-03-30T06:38:05.439Z,57.20
2019-03-30T06:40:33.817Z,57.80
2019-03-30T06:43:02.223Z,57.60
2019-03-30T06:45:30.590Z,54.50
2019-03-30T06:47:58.976Z,50.00
2019-03-30T06:50:27.500Z,44.90
2019-03-30T06:52:58.664Z,41.70
2019-03-30T06:55:25.988Z,40.40
2019-03-30T06:57:54.504Z,40.00
2019-03-30T07:00:31.344Z,40.60
2019-03-30T07:03:00.955Z,39.50
2019-03-30T07:05:29.470Z,38.60
2019-03-30T07:07:57.952Z,36.90
2019-03-30T07:10:26.331Z,40.50
2019-03-30T07:12:54.775Z,40.20
2019-03-30T07:15:23.236Z,39.00
2019-03-30T07:17:51.630Z,38.30
2019-03-30T07:20:27.549Z,41.00
2019-03-30T07:22:56.187Z,40.20
2019-03-30T07:25:25.158Z,38.40
2019-03-30T07:27:54.506Z,38.20
2019-03-30T07:30:22.886Z,35.70
2019-03-30T07:32:51.335Z,34.00
2019-03-30T07:35:19.764Z,32.70
2019-03-30T07:37:48.138Z,34.00
2019-03-30T07:40:16.570Z,32.50
2019-03-30T07:42:45.004Z,32.70
2019-03-30T07:45:13.373Z,33.50
2019-03-30T07:47:41.757Z,33.40
2019-03-30T07:50:10.509Z,31.40
2019-03-30T07:52:38.916Z,32.00
2019-03-30T07:55:07.324Z,30.00
2019-03-30T07:57:35.721Z,30.10
2019-03-30T08:00:07.233Z,30.50
2019-03-30T08:02:35.623Z,31.10
2019-03-30T08:05:06.250Z,33.30
2019-03-30T08:07:34.843Z,33.40
2019-03-30T08:10:04.087Z,36.60
2019-03-30T08:12:31.824Z,36.40
2019-03-30T08:15:00.370Z,36.10
2019-03-30T08:17:28.777Z,33.50
2019-03-30T08:19:57.170Z,32.10
2019-03-30T08:22:25.598Z,31.90
2019-03-30T08:24:54.006Z,37.30
2019-03-30T08:27:22.412Z,38.00
2019-03-30T08:29:50.820Z,36.70
2019-03-30T08:32:19.230Z,34.80
2019-03-30T08:34:47.665Z,36.00
2019-03-30T08:37:16.042Z,36.10
2019-03-30T08:39:44.431Z,34.80
2019-03-30T08:42:12.999Z,31.90
2019-03-30T08:44:41.402Z,29.30
2019-03-30T08:47:09.780Z,34.30
2019-03-30T08:49:38.198Z,35.80
2019-03-30T08:52:06.641Z,36.10
2019-03-30T08:54:35.005Z,35.10
2019-03-30T08:57:03.412Z,32.30
2019-03-30T08:59:31.850Z,29.50
2019-03-30T09:02:00.352Z,29.50
2019-03-30T09:04:28.814Z,27.70
2019-03-30T09:06:57.238Z,28.30
2019-03-30T09:09:25.642Z,28.80
2019-03-30T09:11:54.022Z,28.00
2019-03-30T09:14:22.401Z,27.80
2019-03-30T09:16:50.915Z,27.80
2019-03-30T09:19:19.395Z,28.40
2019-03-30T09:21:47.789Z,31.40
2019-03-30T09:24:16.212Z,32.00
2019-03-30T09:26:44.585Z,31.10
2019-03-30T09:29:13.003Z,29.50
2019-03-30T09:31:41.448Z,29.40
2019-03-30T09:34:09.877Z,29.00
2019-03-30T09:36:38.387Z,28.90
2019-03-30T09:39:06.855Z,30.40
2019-03-30T09:41:35.275Z,31.00
2019-03-30T09:44:03.697Z,30.30
2019-03-30T09:46:32.175Z,28.30
2019-03-30T09:49:00.665Z,28.30
2019-03-30T09:51:29.095Z,27.60
2019-03-30T09:53:57.624Z,30.70
2019-03-30T09:56:25.994Z,30.20
2019-03-30T09:58:54.408Z,29.80
2019-03-30T10:01:22.818Z,30.00
2019-03-30T10:03:51.226Z,30.50
2019-03-30T10:06:19.645Z,30.00
2019-03-30T10:08:48.053Z,29.00
2019-03-30T10:11:16.452Z,32.00
2019-03-30T10:13:44.834Z,34.00
2019-03-30T10:16:13.207Z,34.90
2019-03-30T10:18:41.568Z,42.00
2019-03-30T10:21:09.978Z,43.50
2019-03-30T10:23:38.462Z,44.30
2019-03-30T10:26:06.861Z,45.00
2019-03-30T10:28:35.278Z,47.80
2019-03-30T10:31:03.737Z,49.80
2019-03-30T10:33:32.198Z,50.10
2019-03-30T10:36:00.642Z,50.90
2019-03-30T10:38:29.014Z,50.80
2019-03-30T10:40:57.465Z,49.50
2019-03-30T10:43:25.873Z,50.00
2019-03-30T10:45:54.348Z,49.80
2019-03-30T10:48:22.721Z,50.10
2019-03-30T10:50:51.197Z,49.90
2019-03-30T10:53:19.578Z,50.50
2019-03-30T10:55:48.019Z,50.60
2019-03-30T10:58:16.513Z,51.40
2019-03-30T11:00:44.896Z,51.50
2019-03-30T11:03:13.362Z,50.70
2019-03-30T11:05:41.754Z,50.90
2019-03-30T11:08:10.142Z,50.40
2019-03-30T11:10:38.559Z,50.20
2019-03-30T11:13:06.961Z,50.70
2019-03-30T11:15:35.348Z,50.70
2019-03-30T11:18:03.850Z,50.00
2019-03-30T11:20:32.300Z,50.70
2019-03-30T11:23:00.734Z,50.20
2019-03-30T11:25:29.111Z,50.80
2019-03-30T11:27:57.549Z,50.40
2019-03-30T11:30:25.986Z,51.10
2019-03-30T11:32:54.358Z,51.30
2019-03-30T11:35:22.763Z,51.60
2019-03-30T11:37:51.166Z,51.70
2019-03-30T11:40:19.576Z,50.80
2019-03-30T11:42:47.982Z,50.90
2019-03-30T11:45:16.526Z,51.00
2019-03-30T11:47:44.896Z,51.00
2019-03-30T11:50:13.278Z,49.90
2019-03-30T11:52:41.697Z,50.20
2019-03-30T11:55:21.106Z,50.00
2019-03-30T11:57:40.135Z,52.20
2019-03-30T12:00:08.575Z,50.80
2019-03-30T12:02:36.986Z,50.90
2019-03-30T12:05:07.338Z,51.40
2019-03-30T12:07:35.784Z,51.00
2019-03-30T12:10:05.618Z,51.40
2019-03-30T12:12:37.181Z,52.10
2019-03-30T12:15:06.206Z,52.90
2019-03-30T12:17:34.638Z,52.80
2019-03-30T12:20:03.618Z,54.10
2019-03-30T12:22:32.030Z,54.40
2019-03-30T12:25:00.446Z,54.30
2019-03-30T12:27:28.859Z,53.90
2019-03-30T12:29:57.270Z,53.60
2019-03-30T12:32:25.748Z,54.00
2019-03-30T12:34:54.138Z,53.70
2019-03-30T12:37:22.529Z,53.80
2019-03-30T12:39:50.948Z,54.50
2019-03-30T12:42:19.291Z,54.70
2019-03-30T12:44:47.641Z,54.30
2019-03-30T12:47:16.072Z,53.70
2019-03-30T12:49:45.421Z,53.20
2019-03-30T12:52:13.236Z,53.30
2019-03-30T12:54:41.628Z,53.30
2019-03-30T12:57:10.128Z,54.10
2019-03-30T12:59:38.532Z,53.60
2019-03-30T13:02:06.940Z,54.20
2019-03-30T13:04:35.465Z,53.50
2019-03-30T13:07:03.843Z,53.50
2019-03-30T13:09:34.819Z,53.40
2019-03-30T13:12:02.346Z,53.30
2019-03-30T13:14:30.754Z,53.20
2019-03-30T13:16:59.173Z,53.60
2019-03-30T13:19:27.547Z,52.90
2019-03-30T13:21:55.988Z,53.70
2019-03-30T13:24:24.394Z,53.40
2019-03-30T13:26:52.834Z,53.30
2019-03-30T13:29:21.192Z,53.30
2019-03-30T13:31:49.537Z,53.30
2019-03-30T13:34:17.957Z,53.40
2019-03-30T13:36:46.414Z,52.00
2019-03-30T13:39:14.769Z,51.60
2019-03-30T13:41:43.174Z,51.90
2019-03-30T13:44:11.599Z,51.90
2019-03-30T13:46:40.084Z,51.80
2019-03-30T13:49:08.465Z,52.00
2019-03-30T13:51:36.886Z,52.10
2019-03-30T13:54:05.279Z,52.40
2019-03-30T13:56:33.678Z,52.40
2019-03-30T13:59:02.152Z,52.80
2019-03-30T14:01:30.556Z,52.30
2019-03-30T14:03:58.969Z,52.00
2019-03-30T14:06:27.374Z,52.20
2019-03-30T14:08:55.738Z,51.80
2019-03-30T14:11:24.167Z,52.20
2019-03-30T14:13:52.598Z,51.20
2019-03-30T14:16:21.027Z,51.30
2019-03-30T14:18:49.430Z,51.80
2019-03-30T14:21:17.810Z,52.00
2019-03-30T14:23:46.223Z,52.20
2019-03-30T14:26:14.611Z,52.80
2019-03-30T14:28:43.031Z,51.30
2019-03-30T14:31:11.435Z,51.50
2019-03-30T14:33:39.848Z,51.50
2019-03-30T14:36:08.261Z,51.40
2019-03-30T14:38:36.639Z,50.80
2019-03-30T14:41:05.073Z,50.70
2019-03-30T14:43:33.481Z,50.20
2019-03-30T14:46:01.862Z,51.00
2019-03-30T14:48:30.242Z,51.60
2019-03-30T14:50:58.589Z,52.00
2019-03-30T14:53:27.082Z,52.10
2019-03-30T14:55:55.445Z,52.30
2019-03-30T14:58:23.859Z,51.70
2019-03-30T15:00:52.291Z,52.20
2019-03-30T15:03:20.676Z,51.80
2019-03-30T15:05:49.091Z,51.80
2019-03-30T15:08:17.527Z,51.80
2019-03-30T15:10:45.929Z,51.30
2019-03-30T15:13:14.376Z,51.20
2019-03-30T15:15:42.841Z,50.70
2019-03-30T15:18:11.198Z,50.90
2019-03-30T15:20:39.601Z,51.20
2019-03-30T15:23:07.981Z,51.10
2019-03-30T15:25:36.384Z,51.00
2019-03-30T15:28:04.790Z,51.00
2019-03-30T15:30:33.180Z,50.70
2019-03-30T15:33:03.395Z,50.80
2019-03-30T15:35:31.620Z,49.90
2019-03-30T15:38:00.014Z,50.20
2019-03-30T15:40:28.438Z,50.00
2019-03-30T15:42:56.845Z,50.40
2019-03-30T15:45:25.317Z,50.70
2019-03-30T15:47:53.731Z,51.40
2019-03-30T15:50:22.167Z,51.50
2019-03-30T15:52:50.565Z,51.80
2019-03-30T15:55:19.119Z,52.30
2019-03-30T15:57:47.536Z,52.40
2019-03-30T16:00:16.205Z,52.80
2019-03-30T16:02:44.594Z,52.90
2019-03-30T16:05:15.469Z,52.70
2019-03-30T16:07:43.060Z,52.90
2019-03-30T16:10:11.446Z,53.10
2019-03-30T16:12:39.866Z,53.00
2019-03-30T16:15:08.788Z,53.10
2019-03-30T16:17:37.175Z,52.90
2019-03-30T16:20:07.008Z,53.00
2019-03-30T16:22:35.490Z,53.20
2019-03-30T16:25:04.958Z,53.00
2019-03-30T16:27:33.366Z,53.10
2019-03-30T16:30:01.761Z,53.20
2019-03-30T16:32:30.171Z,53.50
2019-03-30T16:34:58.582Z,54.10
2019-03-30T16:37:26.997Z,54.60
2019-03-30T16:39:55.369Z,54.60
2019-03-30T16:42:23.795Z,54.70
2019-03-30T16:44:52.174Z,55.00
2019-03-30T16:47:20.594Z,55.30
2019-03-30T16:49:49.004Z,55.60
2019-03-30T16:52:17.422Z,55.60
2019-03-30T16:54:45.840Z,55.70
2019-03-30T16:57:14.250Z,55.30
2019-03-30T16:59:42.676Z,55.30
2019-03-30T17:02:11.115Z,54.80
2019-03-30T17:04:39.481Z,54.90
2019-03-30T17:07:07.930Z,55.00
2019-03-30T17:09:36.362Z,55.20
2019-03-30T17:12:04.741Z,55.10
2019-03-30T17:14:33.168Z,55.00
2019-03-30T17:17:01.549Z,55.10
2019-03-30T17:19:29.969Z,55.00
2019-03-30T17:21:58.377Z,55.30
2019-03-30T17:24:26.765Z,56.40
2019-03-30T17:26:55.183Z,56.90
2019-03-30T17:29:23.586Z,57.90
2019-03-30T17:31:52.028Z,57.80
2019-03-30T17:34:20.416Z,57.80
2019-03-30T17:36:48.792Z,57.60
2019-03-30T17:39:17.221Z,57.80
2019-03-30T17:41:45.626Z,58.10
2019-03-30T17:44:14.029Z,58.10
2019-03-30T17:46:42.445Z,58.40
2019-03-30T17:49:10.825Z,58.20
2019-03-30T17:51:39.314Z,58.10
2019-03-30T17:54:07.693Z,58.00
2019-03-30T17:56:36.110Z,58.50
2019-03-30T17:59:04.482Z,60.20
2019-03-30T18:01:32.891Z,60.00
2019-03-30T18:04:01.281Z,60.10
2019-03-30T18:06:30.807Z,60.10
2019-03-30T18:08:59.218Z,60.60
2019-03-30T18:11:27.562Z,61.40
2019-03-30T18:13:55.966Z,61.10
2019-03-30T18:16:24.368Z,61.60
2019-03-30T18:18:52.775Z,61.60
2019-03-30T18:21:21.231Z,62.00
2019-03-30T18:23:49.630Z,62.30
2019-03-30T18:26:18.010Z,62.60
2019-03-30T18:28:46.399Z,62.90
2019-03-30T18:31:14.847Z,62.90
2019-03-30T18:33:43.241Z,62.80
2019-03-30T18:36:12.218Z,63.00
2019-03-30T18:38:40.622Z,63.40
2019-03-30T18:41:09.054Z,63.70
2019-03-30T18:43:37.432Z,64.40
2019-03-30T18:46:05.809Z,63.50
2019-03-30T18:48:34.222Z,63.50
2019-03-30T18:51:02.629Z,63.90
2019-03-30T18:53:31.041Z,64.80
2019-03-30T18:55:59.586Z,65.00
2019-03-30T18:58:40.980Z,65.40
2019-03-30T19:00:57.985Z,65.70
2019-03-30T19:03:26.365Z,66.80
2019-03-30T19:05:54.776Z,67.70
2019-03-30T19:08:23.156Z,68.20
2019-03-30T19:10:51.653Z,69.10
2019-03-30T19:13:20.063Z,69.60
2019-03-30T19:15:48.504Z,70.30
2019-03-30T19:18:16.877Z,70.90
2019-03-30T19:20:45.286Z,71.50
2019-03-30T19:23:13.748Z,72.30
2019-03-30T19:25:42.250Z,73.20
2019-03-30T19:28:10.652Z,74.20
2019-03-30T19:30:41.994Z,74.80
2019-03-30T19:33:09.101Z,75.20
2019-03-30T19:35:37.510Z,76.40
2019-03-30T19:38:05.885Z,77.10
2019-03-30T19:40:34.356Z,78.00
2019-03-30T19:43:02.842Z,78.80
2019-03-30T19:45:31.194Z,79.80
2019-03-30T19:47:59.578Z,80.30
2019-03-30T19:50:28.052Z,80.90
2019-03-30T19:52:56.467Z,81.30
2019-03-30T19:55:24.867Z,82.40
2019-03-30T19:57:53.270Z,83.00
2019-03-30T20:00:21.649Z,83.50
2019-03-30T20:02:50.084Z,84.00
2019-03-30T20:05:18.490Z,84.50
2019-03-30T20:07:46.870Z,84.60
2019-03-30T20:10:15.307Z,85.20
2019-03-30T20:12:43.709Z,85.50
2019-03-30T20:15:12.123Z,86.00
2019-03-30T20:17:40.541Z,86.30
2019-03-30T20:20:09.313Z,86.70
2019-03-30T20:22:37.718Z,87.10
2019-03-30T20:25:07.863Z,87.40
2019-03-30T20:27:36.409Z,87.80
2019-03-30T20:30:09.099Z,88.10
2019-03-30T20:32:37.892Z,88.20
2019-03-30T20:35:08.085Z,88.40
2019-03-30T20:37:36.450Z,88.70
2019-03-30T20:40:07.018Z,89.30
2019-03-30T20:42:35.420Z,89.30
2019-03-30T20:45:04.967Z,89.60
2019-03-30T20:47:33.345Z,89.70
2019-03-30T20:50:01.931Z,90.10
2019-03-30T20:52:30.446Z,90.10
2019-03-30T20:54:58.869Z,90.10
2019-03-30T20:57:27.236Z,90.20
2019-03-30T20:59:55.791Z,90.20
2019-03-30T21:02:24.158Z,90.30
2019-03-30T21:04:52.569Z,90.30
2019-03-30T21:07:21.027Z,90.40
2019-03-30T21:09:49.615Z,90.40
2019-03-30T21:12:18.014Z,90.40
2019-03-30T21:14:46.391Z,90.50
2019-03-30T21:17:14.830Z,90.60
2019-03-30T21:19:43.227Z,90.50
2019-03-30T21:22:11.837Z,90.50
2019-03-30T21:24:40.246Z,90.40
2019-03-30T21:27:08.691Z,90.50
2019-03-30T21:29:37.118Z,90.60
2019-03-30T21:32:05.462Z,90.60
2019-03-30T21:34:34.041Z,90.40
2019-03-30T21:37:02.406Z,90.20
2019-03-30T21:39:30.791Z,90.10
2019-03-30T21:41:59.198Z,90.10
2019-03-30T21:44:27.733Z,90.10
2019-03-30T21:46:56.142Z,90.20
2019-03-30T21:49:24.619Z,90.20
2019-03-30T21:51:52.955Z,90.00
2019-03-30T21:54:21.360Z,90.10
2019-03-30T21:56:49.833Z,90.10
2019-03-30T21:59:18.235Z,90.10
2019-03-30T22:01:46.734Z,90.10
2019-03-30T22:04:15.174Z,90.30
2019-03-30T22:06:43.587Z,90.40
2019-03-30T22:09:12.690Z,90.40
2019-03-30T22:11:41.070Z,90.40
2019-03-30T22:14:09.457Z,90.20
2019-03-30T22:16:37.845Z,90.40
2019-03-30T22:19:06.227Z,90.50
2019-03-30T22:21:34.686Z,90.60
2019-03-30T22:24:03.094Z,90.60
2019-03-30T22:26:31.704Z,90.70
2019-03-30T22:29:00.078Z,90.80
2019-03-30T22:31:28.563Z,90.80
2019-03-30T22:33:56.969Z,90.80
2019-03-30T22:36:25.355Z,90.90
2019-03-30T22:38:53.789Z,90.90
2019-03-30T22:41:22.166Z,91.10
2019-03-30T22:43:50.549Z,91.10
2019-03-30T22:46:18.997Z,91.20
2019-03-30T22:48:47.410Z,91.10
2019-03-30T22:51:15.893Z,91.40
2019-03-30T22:53:44.370Z,91.40
2019-03-30T22:56:12.757Z,91.40
2019-03-30T22:58:41.177Z,91.50
2019-03-30T23:01:11.235Z,91.40
2019-03-30T23:03:39.744Z,91.50
2019-03-30T23:06:08.118Z,91.50
2019-03-30T23:08:36.595Z,91.60
2019-03-30T23:11:05.077Z,91.80
2019-03-30T23:13:33.554Z,91.80
2019-03-30T23:16:02.033Z,91.70
2019-03-30T23:18:30.519Z,91.60
2019-03-30T23:20:58.889Z,91.70
2019-03-30T23:23:27.304Z,91.90
2019-03-30T23:25:55.738Z,92.00
2019-03-30T23:28:24.138Z,92.10
2019-03-30T23:30:54.435Z,92.10
2019-03-30T23:33:22.676Z,92.10
2019-03-30T23:35:51.120Z,92.20
2019-03-30T23:38:19.566Z,92.20
2019-03-30T23:40:47.940Z,92.10
2019-03-30T23:43:16.362Z,92.30
2019-03-30T23:45:44.935Z,92.40
2019-03-30T23:48:13.300Z,92.40
2019-03-30T23:50:41.713Z,92.50
2019-03-30T23:53:10.171Z,92.60
2019-03-30T23:55:38.566Z,92.70
2019-03-30T23:58:07.013Z,92.70
